sensor_id;sensor_type;location;lat;lon;timestamp;temperature;humidity
22153;DHT22;11242;50.536;12.688;2024-01-15T00:01:14;-1.30;99.90
22153;DHT22;11242;50.536;12.688;2024-01-15T00:03:40;-1.30;99.90
22153;DHT22;11242;50.536;12.688;2024-01-15T00:06:05;-1.30;99.90
22153;DHT22;11242;50.536;12.688;2024-01-15T00:08:31;-1.30;99.90
22153;DHT22;11242;50.536;12.688;2024-01-15T00:10:56;-1.30;99.90
22153;DHT22;11242;50.536;12.688;2024-01-15T00:13:22;-1.40;99.90
22153;DHT22;11242;50.536;12.688;2024-01-15T00:15:48;-1.30;99.90
22153;DHT22;11242;50.536;12.688;2024-01-15T00:18:13;-1.30;99.90
22153;DHT22;11242;50.536;12.688;2024-01-15T00:20:39;-1.30;99.90
22153;DHT22;11242;50.536;12.688;2024-01-15T00:23:04;-1.30;99.90
22153;DHT22;11242;50.536;12.688;2024-01-15T00:25:30;-1.30;99.90
22153;DHT22;11242;50.536;12.688;2024-01-15T00:27:55;-1.30;99.90
22153;DHT22;11242;50.536;12.688;2024-01-15T00:30:21;-1.20;99.90
22153;DHT22;11242;50.536;12.688;2024-01-15T00:32:46;-1.30;99.90
22153;DHT22;11242;50.536;12.688;2024-01-15T00:35:12;-1.30;99.90
22153;DHT22;11242;50.536;12.688;2024-01-15T00:37:37;-1.40;99.90
22153;DHT22;11242;50.536;12.688;2024-01-15T00:40:04;-1.30;99.90
22153;DHT22;11242;50.536;12.688;2024-01-15T00:42:30;-1.30;99.90
22153;DHT22;11242;50.536;12.688;2024-01-15T00:44:55;-1.30;99.90
22153;DHT22;11242;50.536;12.688;2024-01-15T00:47:21;-1.40;99.90
22153;DHT22;11242;50.536;12.688;2024-01-15T00:49:46;-1.40;99.90
22153;DHT22;11242;50.536;12.688;2024-01-15T00:52:12;-1.40;99.90
22153;DHT22;11242;50.536;12.688;2024-01-15T00:54:37;-1.40;99.90
22153;DHT22;11242;50.536;12.688;2024-01-15T00:57:04;-1.50;99.90
22153;DHT22;11242;50.536;12.688;2024-01-15T00:59:30;-1.50;99.90
22153;DHT22;11242;50.536;12.688;2024-01-15T01:01:55;-1.50;99.90
22153;DHT22;11242;50.536;12.688;2024-01-15T01:04:21;-1.60;99.90
22153;DHT22;11242;50.536;12.688;2024-01-15T01:06:46;-1.60;99.90
22153;DHT22;11242;50.536;12.688;2024-01-15T01:09:12;-1.50;99.90
22153;DHT22;11242;50.536;12.688;2024-01-15T01:11:37;-1.50;99.90
22153;DHT22;11242;50.536;12.688;2024-01-15T01:14:03;-1.60;99.90
22153;DHT22;11242;50.536;12.688;2024-01-15T01:16:28;-1.50;99.90
22153;DHT22;11242;50.536;12.688;2024-01-15T01:18:55;-1.50;99.90
22153;DHT22;11242;50.536;12.688;2024-01-15T01:21:20;-1.50;99.90
22153;DHT22;11242;50.536;12.688;2024-01-15T01:23:46;-1.50;99.90
22153;DHT22;11242;50.536;12.688;2024-01-15T01:26:15;-1.50;99.90
22153;DHT22;11242;50.536;12.688;2024-01-15T01:28:41;-1.50;99.90
22153;DHT22;11242;50.536;12.688;2024-01-15T01:31:07;-1.60;99.90
22153;DHT22;11242;50.536;12.688;2024-01-15T01:33:33;-1.50;99.90
22153;DHT22;11242;50.536;12.688;2024-01-15T01:35:59;-1.50;99.90
22153;DHT22;11242;50.536;12.688;2024-01-15T01:38:24;-1.50;99.90
22153;DHT22;11242;50.536;12.688;2024-01-15T01:40:50;-1.60;99.90
22153;DHT22;11242;50.536;12.688;2024-01-15T01:43:15;-1.60;99.90
22153;DHT22;11242;50.536;12.688;2024-01-15T01:45:41;-1.70;99.90
22153;DHT22;11242;50.536;12.688;2024-01-15T01:48:07;-1.70;99.90
22153;DHT22;11242;50.536;12.688;2024-01-15T01:50:33;-1.80;99.90
22153;DHT22;11242;50.536;12.688;2024-01-15T01:53:00;-1.80;99.90
22153;DHT22;11242;50.536;12.688;2024-01-15T01:55:27;-1.80;99.90
22153;DHT22;11242;50.536;12.688;2024-01-15T01:57:55;-1.80;99.90
22153;DHT22;11242;50.536;12.688;2024-01-15T02:00:21;-1.80;99.90
22153;DHT22;11242;50.536;12.688;2024-01-15T02:02:46;-1.80;99.90
22153;DHT22;11242;50.536;12.688;2024-01-15T02:05:14;-1.80;99.90
22153;DHT22;11242;50.536;12.688;2024-01-15T02:07:41;-1.80;99.90
22153;DHT22;11242;50.536;12.688;2024-01-15T02:10:06;-1.90;99.90
22153;DHT22;11242;50.536;12.688;2024-01-15T02:12:32;-1.90;99.90
22153;DHT22;11242;50.536;12.688;2024-01-15T02:14:58;-2.00;99.90
22153;DHT22;11242;50.536;12.688;2024-01-15T02:17:23;-2.00;99.90
22153;DHT22;11242;50.536;12.688;2024-01-15T02:19:49;-2.00;99.90
22153;DHT22;11242;50.536;12.688;2024-01-15T02:22:15;-2.10;99.90
22153;DHT22;11242;50.536;12.688;2024-01-15T02:24:41;-2.20;99.90
22153;DHT22;11242;50.536;12.688;2024-01-15T02:27:07;-2.20;99.90
22153;DHT22;11242;50.536;12.688;2024-01-15T02:29:33;-2.20;99.90
22153;DHT22;11242;50.536;12.688;2024-01-15T02:31:58;-2.30;99.90
22153;DHT22;11242;50.536;12.688;2024-01-15T02:34:24;-2.30;99.90
22153;DHT22;11242;50.536;12.688;2024-01-15T02:36:49;-2.30;99.90
22153;DHT22;11242;50.536;12.688;2024-01-15T02:39:15;-2.40;99.90
22153;DHT22;11242;50.536;12.688;2024-01-15T02:41:40;-2.40;99.90
22153;DHT22;11242;50.536;12.688;2024-01-15T02:44:06;-2.40;99.90
22153;DHT22;11242;50.536;12.688;2024-01-15T02:46:31;-2.40;99.90
22153;DHT22;11242;50.536;12.688;2024-01-15T02:48:57;-2.40;99.90
22153;DHT22;11242;50.536;12.688;2024-01-15T02:51:22;-2.40;99.90
22153;DHT22;11242;50.536;12.688;2024-01-15T02:53:49;-2.40;99.90
22153;DHT22;11242;50.536;12.688;2024-01-15T02:56:15;-2.40;99.90
22153;DHT22;11242;50.536;12.688;2024-01-15T02:58:41;-2.40;99.90
22153;DHT22;11242;50.536;12.688;2024-01-15T03:01:06;-2.40;99.90
22153;DHT22;11242;50.536;12.688;2024-01-15T03:03:32;-2.40;99.90
22153;DHT22;11242;50.536;12.688;2024-01-15T03:05:58;-2.50;99.90
22153;DHT22;11242;50.536;12.688;2024-01-15T03:08:24;-2.60;99.90
22153;DHT22;11242;50.536;12.688;2024-01-15T03:10:49;-2.60;99.90
22153;DHT22;11242;50.536;12.688;2024-01-15T03:13:15;-2.70;99.90
22153;DHT22;11242;50.536;12.688;2024-01-15T03:15:41;-2.70;99.90
22153;DHT22;11242;50.536;12.688;2024-01-15T03:18:06;-2.70;99.90
22153;DHT22;11242;50.536;12.688;2024-01-15T03:20:32;-2.80;99.90
22153;DHT22;11242;50.536;12.688;2024-01-15T03:22:58;-2.80;99.90
22153;DHT22;11242;50.536;12.688;2024-01-15T03:25:23;-2.90;99.90
22153;DHT22;11242;50.536;12.688;2024-01-15T03:27:49;-2.90;99.90
22153;DHT22;11242;50.536;12.688;2024-01-15T03:30:14;-2.90;99.90
22153;DHT22;11242;50.536;12.688;2024-01-15T03:32:40;-2.90;99.90
22153;DHT22;11242;50.536;12.688;2024-01-15T03:35:06;-2.90;99.90
22153;DHT22;11242;50.536;12.688;2024-01-15T03:37:31;-2.90;99.90
22153;DHT22;11242;50.536;12.688;2024-01-15T03:39:57;-3.00;99.90
22153;DHT22;11242;50.536;12.688;2024-01-15T03:42:22;-3.00;99.90
22153;DHT22;11242;50.536;12.688;2024-01-15T03:44:48;-3.00;99.90
22153;DHT22;11242;50.536;12.688;2024-01-15T03:47:13;-3.00;99.90
22153;DHT22;11242;50.536;12.688;2024-01-15T03:49:39;-3.00;99.90
22153;DHT22;11242;50.536;12.688;2024-01-15T03:52:05;-3.00;99.90
22153;DHT22;11242;50.536;12.688;2024-01-15T03:54:31;-3.00;99.90
22153;DHT22;11242;50.536;12.688;2024-01-15T03:56:56;-3.00;99.90
22153;DHT22;11242;50.536;12.688;2024-01-15T03:59:22;-3.00;99.90
22153;DHT22;11242;50.536;12.688;2024-01-15T04:01:50;-3.00;99.90
22153;DHT22;11242;50.536;12.688;2024-01-15T04:04:17;-3.00;99.90
22153;DHT22;11242;50.536;12.688;2024-01-15T04:06:42;-2.90;99.90
22153;DHT22;11242;50.536;12.688;2024-01-15T04:09:08;-2.90;99.90
22153;DHT22;11242;50.536;12.688;2024-01-15T04:11:33;-2.90;99.90
22153;DHT22;11242;50.536;12.688;2024-01-15T04:13:59;-2.90;99.90
22153;DHT22;11242;50.536;12.688;2024-01-15T04:16:24;-2.90;99.90
22153;DHT22;11242;50.536;12.688;2024-01-15T04:18:50;-2.80;99.90
22153;DHT22;11242;50.536;12.688;2024-01-15T04:21:17;-2.90;99.90
22153;DHT22;11242;50.536;12.688;2024-01-15T04:23:43;-2.80;99.90
22153;DHT22;11242;50.536;12.688;2024-01-15T04:26:09;-2.80;99.90
22153;DHT22;11242;50.536;12.688;2024-01-15T04:28:35;-2.80;99.90
22153;DHT22;11242;50.536;12.688;2024-01-15T04:31:00;-2.80;99.90
22153;DHT22;11242;50.536;12.688;2024-01-15T04:33:26;-2.80;99.90
22153;DHT22;11242;50.536;12.688;2024-01-15T04:35:51;-2.80;99.90
22153;DHT22;11242;50.536;12.688;2024-01-15T04:38:17;-2.80;99.90
22153;DHT22;11242;50.536;12.688;2024-01-15T04:40:42;-2.80;99.90
22153;DHT22;11242;50.536;12.688;2024-01-15T04:43:08;-2.90;99.90
22153;DHT22;11242;50.536;12.688;2024-01-15T04:45:33;-2.90;99.90
22153;DHT22;11242;50.536;12.688;2024-01-15T04:47:59;-2.90;99.90
22153;DHT22;11242;50.536;12.688;2024-01-15T04:50:24;-2.90;99.90
22153;DHT22;11242;50.536;12.688;2024-01-15T04:52:50;-3.00;99.90
22153;DHT22;11242;50.536;12.688;2024-01-15T04:55:16;-3.00;99.90
22153;DHT22;11242;50.536;12.688;2024-01-15T04:57:41;-3.00;99.90
22153;DHT22;11242;50.536;12.688;2024-01-15T05:00:07;-3.10;99.90
22153;DHT22;11242;50.536;12.688;2024-01-15T05:02:33;-3.10;99.90
22153;DHT22;11242;50.536;12.688;2024-01-15T05:04:58;-3.10;99.90
22153;DHT22;11242;50.536;12.688;2024-01-15T05:07:24;-3.00;99.90
22153;DHT22;11242;50.536;12.688;2024-01-15T05:09:49;-3.00;99.90
22153;DHT22;11242;50.536;12.688;2024-01-15T05:12:15;-2.90;99.90
22153;DHT22;11242;50.536;12.688;2024-01-15T05:14:40;-2.90;99.90
22153;DHT22;11242;50.536;12.688;2024-01-15T05:17:06;-2.90;99.90
22153;DHT22;11242;50.536;12.688;2024-01-15T05:19:31;-2.80;99.90
22153;DHT22;11242;50.536;12.688;2024-01-15T05:21:57;-2.80;99.90
22153;DHT22;11242;50.536;12.688;2024-01-15T05:24:23;-2.80;99.90
22153;DHT22;11242;50.536;12.688;2024-01-15T05:26:48;-2.80;99.90
22153;DHT22;11242;50.536;12.688;2024-01-15T05:29:14;-2.80;99.90
22153;DHT22;11242;50.536;12.688;2024-01-15T05:31:39;-2.80;99.90
22153;DHT22;11242;50.536;12.688;2024-01-15T05:34:05;-2.80;99.90
22153;DHT22;11242;50.536;12.688;2024-01-15T05:36:30;-2.70;99.90
22153;DHT22;11242;50.536;12.688;2024-01-15T05:38:56;-2.70;99.90
22153;DHT22;11242;50.536;12.688;2024-01-15T05:41:21;-2.70;99.90
22153;DHT22;11242;50.536;12.688;2024-01-15T05:43:47;-2.70;99.90
22153;DHT22;11242;50.536;12.688;2024-01-15T05:46:12;-2.70;99.90
22153;DHT22;11242;50.536;12.688;2024-01-15T05:48:38;-2.70;99.90
22153;DHT22;11242;50.536;12.688;2024-01-15T05:51:04;-2.70;99.90
22153;DHT22;11242;50.536;12.688;2024-01-15T05:53:29;-2.70;99.90
22153;DHT22;11242;50.536;12.688;2024-01-15T05:55:55;-2.70;99.90
22153;DHT22;11242;50.536;12.688;2024-01-15T05:58:21;-2.70;99.90
22153;DHT22;11242;50.536;12.688;2024-01-15T06:00:46;-2.70;99.90
22153;DHT22;11242;50.536;12.688;2024-01-15T06:03:13;-2.70;99.90
22153;DHT22;11242;50.536;12.688;2024-01-15T06:05:38;-2.70;99.90
22153;DHT22;11242;50.536;12.688;2024-01-15T06:08:05;-2.80;99.90
22153;DHT22;11242;50.536;12.688;2024-01-15T06:10:30;-2.80;99.90
22153;DHT22;11242;50.536;12.688;2024-01-15T06:12:56;-2.80;99.90
22153;DHT22;11242;50.536;12.688;2024-01-15T06:15:21;-2.80;99.90
22153;DHT22;11242;50.536;12.688;2024-01-15T06:17:47;-2.80;99.90
22153;DHT22;11242;50.536;12.688;2024-01-15T06:20:13;-2.80;99.90
22153;DHT22;11242;50.536;12.688;2024-01-15T06:22:38;-2.80;99.90
22153;DHT22;11242;50.536;12.688;2024-01-15T06:25:08;-2.80;99.90
22153;DHT22;11242;50.536;12.688;2024-01-15T06:27:34;-2.80;99.90
22153;DHT22;11242;50.536;12.688;2024-01-15T06:29:59;-2.80;99.90
22153;DHT22;11242;50.536;12.688;2024-01-15T06:32:25;-2.70;99.90
22153;DHT22;11242;50.536;12.688;2024-01-15T06:34:50;-2.70;99.90
22153;DHT22;11242;50.536;12.688;2024-01-15T06:37:16;-2.70;99.90
22153;DHT22;11242;50.536;12.688;2024-01-15T06:39:42;-2.70;99.90
22153;DHT22;11242;50.536;12.688;2024-01-15T06:42:07;-2.70;99.90
22153;DHT22;11242;50.536;12.688;2024-01-15T06:44:33;-2.70;99.90
22153;DHT22;11242;50.536;12.688;2024-01-15T06:46:58;-2.70;99.90
22153;DHT22;11242;50.536;12.688;2024-01-15T06:49:28;-2.70;99.90
22153;DHT22;11242;50.536;12.688;2024-01-15T06:51:55;-2.70;99.90
22153;DHT22;11242;50.536;12.688;2024-01-15T06:54:20;-2.70;99.90
22153;DHT22;11242;50.536;12.688;2024-01-15T06:56:46;-2.70;99.90
22153;DHT22;11242;50.536;12.688;2024-01-15T06:59:11;-2.70;99.90
22153;DHT22;11242;50.536;12.688;2024-01-15T07:01:37;-2.70;99.90
22153;DHT22;11242;50.536;12.688;2024-01-15T07:04:02;-2.70;99.90
22153;DHT22;11242;50.536;12.688;2024-01-15T07:06:28;-2.70;99.90
22153;DHT22;11242;50.536;12.688;2024-01-15T07:08:56;-2.70;99.90
22153;DHT22;11242;50.536;12.688;2024-01-15T07:11:21;-2.70;99.90
22153;DHT22;11242;50.536;12.688;2024-01-15T07:13:47;-2.70;99.90
22153;DHT22;11242;50.536;12.688;2024-01-15T07:16:12;-2.70;99.90
22153;DHT22;11242;50.536;12.688;2024-01-15T07:18:38;-2.70;99.90
22153;DHT22;11242;50.536;12.688;2024-01-15T07:21:04;-2.70;99.90
22153;DHT22;11242;50.536;12.688;2024-01-15T07:23:31;-2.70;99.90
22153;DHT22;11242;50.536;12.688;2024-01-15T07:25:57;-2.70;99.90
22153;DHT22;11242;50.536;12.688;2024-01-15T07:28:22;-2.70;99.90
22153;DHT22;11242;50.536;12.688;2024-01-15T07:30:48;-2.70;99.90
22153;DHT22;11242;50.536;12.688;2024-01-15T07:33:13;-2.70;99.90
22153;DHT22;11242;50.536;12.688;2024-01-15T07:35:39;-2.60;99.90
22153;DHT22;11242;50.536;12.688;2024-01-15T07:38:05;-2.60;99.90
22153;DHT22;11242;50.536;12.688;2024-01-15T07:40:30;-2.60;99.90
22153;DHT22;11242;50.536;12.688;2024-01-15T07:42:56;-2.60;99.90
22153;DHT22;11242;50.536;12.688;2024-01-15T07:45:21;-2.60;99.90
22153;DHT22;11242;50.536;12.688;2024-01-15T07:47:47;-2.60;99.90
22153;DHT22;11242;50.536;12.688;2024-01-15T07:50:12;-2.60;99.90
22153;DHT22;11242;50.536;12.688;2024-01-15T07:52:40;-2.60;99.90
22153;DHT22;11242;50.536;12.688;2024-01-15T07:55:05;-2.60;99.90
22153;DHT22;11242;50.536;12.688;2024-01-15T07:57:31;-2.60;99.90
22153;DHT22;11242;50.536;12.688;2024-01-15T07:59:56;-2.50;99.90
22153;DHT22;11242;50.536;12.688;2024-01-15T08:02:22;-2.50;99.90
22153;DHT22;11242;50.536;12.688;2024-01-15T08:04:47;-2.50;99.90
22153;DHT22;11242;50.536;12.688;2024-01-15T08:07:13;-2.50;99.90
22153;DHT22;11242;50.536;12.688;2024-01-15T08:09:39;-2.40;99.90
22153;DHT22;11242;50.536;12.688;2024-01-15T08:12:05;-2.40;99.90
22153;DHT22;11242;50.536;12.688;2024-01-15T08:14:31;-2.40;99.90
22153;DHT22;11242;50.536;12.688;2024-01-15T08:16:57;-2.30;99.90
22153;DHT22;11242;50.536;12.688;2024-01-15T08:19:22;-2.30;99.90
22153;DHT22;11242;50.536;12.688;2024-01-15T08:21:48;-2.20;99.90
22153;DHT22;11242;50.536;12.688;2024-01-15T08:24:15;-2.00;99.90
22153;DHT22;11242;50.536;12.688;2024-01-15T08:26:40;-1.90;99.90
22153;DHT22;11242;50.536;12.688;2024-01-15T08:29:06;-1.80;99.90
22153;DHT22;11242;50.536;12.688;2024-01-15T08:31:31;-1.70;99.90
22153;DHT22;11242;50.536;12.688;2024-01-15T08:33:57;-1.60;99.90
22153;DHT22;11242;50.536;12.688;2024-01-15T08:36:23;-1.70;99.90
22153;DHT22;11242;50.536;12.688;2024-01-15T08:38:49;-1.70;99.90
22153;DHT22;11242;50.536;12.688;2024-01-15T08:41:15;-1.60;99.90
22153;DHT22;11242;50.536;12.688;2024-01-15T08:43:41;-1.60;99.90
22153;DHT22;11242;50.536;12.688;2024-01-15T08:46:06;-1.60;99.90
22153;DHT22;11242;50.536;12.688;2024-01-15T08:48:32;-1.60;99.90
22153;DHT22;11242;50.536;12.688;2024-01-15T08:50:58;-1.70;99.90
22153;DHT22;11242;50.536;12.688;2024-01-15T08:53:23;-1.70;99.90
22153;DHT22;11242;50.536;12.688;2024-01-15T08:55:49;-1.80;99.90
22153;DHT22;11242;50.536;12.688;2024-01-15T08:58:15;-1.80;99.90
22153;DHT22;11242;50.536;12.688;2024-01-15T09:00:41;-1.80;99.90
22153;DHT22;11242;50.536;12.688;2024-01-15T09:03:07;-1.80;99.90
22153;DHT22;11242;50.536;12.688;2024-01-15T09:05:34;-1.70;99.90
22153;DHT22;11242;50.536;12.688;2024-01-15T09:08:00;-1.70;99.90
22153;DHT22;11242;50.536;12.688;2024-01-15T09:10:25;-1.70;99.90
22153;DHT22;11242;50.536;12.688;2024-01-15T09:12:51;-1.60;99.90
22153;DHT22;11242;50.536;12.688;2024-01-15T09:15:17;-1.60;99.90
22153;DHT22;11242;50.536;12.688;2024-01-15T09:17:42;-1.50;99.90
22153;DHT22;11242;50.536;12.688;2024-01-15T09:20:09;-1.40;99.90
22153;DHT22;11242;50.536;12.688;2024-01-15T09:22:35;-1.30;99.90
22153;DHT22;11242;50.536;12.688;2024-01-15T09:25:01;-1.30;99.90
22153;DHT22;11242;50.536;12.688;2024-01-15T09:27:26;-1.20;99.90
22153;DHT22;11242;50.536;12.688;2024-01-15T09:29:52;-1.20;99.90
22153;DHT22;11242;50.536;12.688;2024-01-15T09:32:18;-1.20;99.90
22153;DHT22;11242;50.536;12.688;2024-01-15T09:34:45;-1.30;99.90
22153;DHT22;11242;50.536;12.688;2024-01-15T09:37:11;-1.20;99.90
22153;DHT22;11242;50.536;12.688;2024-01-15T09:39:37;-1.20;99.90
22153;DHT22;11242;50.536;12.688;2024-01-15T09:42:03;-1.20;99.90
22153;DHT22;11242;50.536;12.688;2024-01-15T09:44:29;-1.10;99.90
22153;DHT22;11242;50.536;12.688;2024-01-15T09:46:55;-1.00;99.90
22153;DHT22;11242;50.536;12.688;2024-01-15T09:49:21;-0.90;99.90
22153;DHT22;11242;50.536;12.688;2024-01-15T09:51:47;-0.90;99.90
22153;DHT22;11242;50.536;12.688;2024-01-15T09:54:13;-1.00;99.90
22153;DHT22;11242;50.536;12.688;2024-01-15T09:56:45;-1.20;99.90
22153;DHT22;11242;50.536;12.688;2024-01-15T09:59:16;-1.20;99.90
22153;DHT22;11242;50.536;12.688;2024-01-15T10:01:43;-1.30;99.90
22153;DHT22;11242;50.536;12.688;2024-01-15T10:04:10;-1.30;99.90
22153;DHT22;11242;50.536;12.688;2024-01-15T10:06:36;-1.30;99.90
22153;DHT22;11242;50.536;12.688;2024-01-15T10:09:02;-1.20;99.90
22153;DHT22;11242;50.536;12.688;2024-01-15T10:11:29;-1.30;99.90
22153;DHT22;11242;50.536;12.688;2024-01-15T10:13:55;-1.30;99.90
22153;DHT22;11242;50.536;12.688;2024-01-15T10:16:22;-1.20;99.90
22153;DHT22;11242;50.536;12.688;2024-01-15T10:18:51;-1.20;99.90
22153;DHT22;11242;50.536;12.688;2024-01-15T10:21:17;-1.20;99.90
22153;DHT22;11242;50.536;12.688;2024-01-15T10:23:42;-1.20;99.90
22153;DHT22;11242;50.536;12.688;2024-01-15T10:26:08;-1.20;99.90
22153;DHT22;11242;50.536;12.688;2024-01-15T10:28:34;-1.20;99.90
22153;DHT22;11242;50.536;12.688;2024-01-15T10:31:01;-1.20;99.90
22153;DHT22;11242;50.536;12.688;2024-01-15T10:33:27;-1.10;99.90
22153;DHT22;11242;50.536;12.688;2024-01-15T10:35:54;-0.90;99.90
22153;DHT22;11242;50.536;12.688;2024-01-15T10:38:21;-0.70;99.90
22153;DHT22;11242;50.536;12.688;2024-01-15T10:40:54;-0.70;99.90
22153;DHT22;11242;50.536;12.688;2024-01-15T10:43:21;-0.70;99.90
22153;DHT22;11242;50.536;12.688;2024-01-15T10:45:49;-0.70;99.90
22153;DHT22;11242;50.536;12.688;2024-01-15T10:48:17;-0.50;99.90
22153;DHT22;11242;50.536;12.688;2024-01-15T10:50:47;-0.40;99.90
22153;DHT22;11242;50.536;12.688;2024-01-15T10:53:16;-0.20;99.90
22153;DHT22;11242;50.536;12.688;2024-01-15T10:55:42;-0.30;99.90
22153;DHT22;11242;50.536;12.688;2024-01-15T10:58:09;-0.40;99.90
22153;DHT22;11242;50.536;12.688;2024-01-15T11:00:38;-0.30;99.90
22153;DHT22;11242;50.536;12.688;2024-01-15T11:03:05;-0.20;99.90
22153;DHT22;11242;50.536;12.688;2024-01-15T11:05:38;0.00;99.90
22153;DHT22;11242;50.536;12.688;2024-01-15T11:08:07;0.10;99.90
22153;DHT22;11242;50.536;12.688;2024-01-15T11:10:43;0.00;99.90
22153;DHT22;11242;50.536;12.688;2024-01-15T11:13:15;0.10;99.90
22153;DHT22;11242;50.536;12.688;2024-01-15T11:16:05;0.20;99.90
22153;DHT22;11242;50.536;12.688;2024-01-15T11:18:36;0.30;99.90
22153;DHT22;11242;50.536;12.688;2024-01-15T11:21:20;0.30;99.90
22153;DHT22;11242;50.536;12.688;2024-01-15T11:29:28;0.40;99.90
22153;DHT22;11242;50.536;12.688;2024-01-15T11:31:59;0.30;99.90
22153;DHT22;11242;50.536;12.688;2024-01-15T11:34:51;0.10;99.90
22153;DHT22;11242;50.536;12.688;2024-01-15T11:37:18;0.00;99.90
22153;DHT22;11242;50.536;12.688;2024-01-15T11:39:44;-0.10;99.90
22153;DHT22;11242;50.536;12.688;2024-01-15T11:42:12;0.00;99.90
22153;DHT22;11242;50.536;12.688;2024-01-15T11:44:39;0.00;99.90
22153;DHT22;11242;50.536;12.688;2024-01-15T11:47:09;-0.10;99.90
22153;DHT22;11242;50.536;12.688;2024-01-15T11:52:06;-0.20;99.90
22153;DHT22;11242;50.536;12.688;2024-01-15T11:54:34;-0.20;99.90
22153;DHT22;11242;50.536;12.688;2024-01-15T11:57:06;-0.20;99.90
22153;DHT22;11242;50.536;12.688;2024-01-15T11:59:34;-0.10;99.90
22153;DHT22;11242;50.536;12.688;2024-01-15T12:02:00;-0.10;99.90
22153;DHT22;11242;50.536;12.688;2024-01-15T12:04:27;-0.20;99.90
22153;DHT22;11242;50.536;12.688;2024-01-15T12:06:52;-0.20;99.90
22153;DHT22;11242;50.536;12.688;2024-01-15T12:09:21;-0.20;99.90
22153;DHT22;11242;50.536;12.688;2024-01-15T12:11:52;-0.10;99.90
22153;DHT22;11242;50.536;12.688;2024-01-15T12:14:21;-0.20;99.90
22153;DHT22;11242;50.536;12.688;2024-01-15T12:16:47;-0.20;99.90
22153;DHT22;11242;50.536;12.688;2024-01-15T12:19:14;-0.30;99.90
22153;DHT22;11242;50.536;12.688;2024-01-15T12:21:39;-0.30;99.90
22153;DHT22;11242;50.536;12.688;2024-01-15T12:24:07;-0.50;99.90
22153;DHT22;11242;50.536;12.688;2024-01-15T12:26:33;-0.60;99.90
22153;DHT22;11242;50.536;12.688;2024-01-15T12:29:02;-0.50;99.90
22153;DHT22;11242;50.536;12.688;2024-01-15T12:31:27;-0.50;99.90
22153;DHT22;11242;50.536;12.688;2024-01-15T12:33:53;-0.60;99.90
22153;DHT22;11242;50.536;12.688;2024-01-15T12:36:21;-0.70;99.90
22153;DHT22;11242;50.536;12.688;2024-01-15T12:38:47;-0.80;99.90
22153;DHT22;11242;50.536;12.688;2024-01-15T12:41:12;-0.80;99.90
22153;DHT22;11242;50.536;12.688;2024-01-15T12:43:38;-0.90;99.90
22153;DHT22;11242;50.536;12.688;2024-01-15T12:46:04;-1.00;99.90
22153;DHT22;11242;50.536;12.688;2024-01-15T12:48:29;-0.90;99.90
22153;DHT22;11242;50.536;12.688;2024-01-15T12:50:55;-1.10;99.90
22153;DHT22;11242;50.536;12.688;2024-01-15T12:53:21;-1.10;99.90
22153;DHT22;11242;50.536;12.688;2024-01-15T12:55:47;-1.10;99.90
22153;DHT22;11242;50.536;12.688;2024-01-15T12:58:12;-1.10;99.90
22153;DHT22;11242;50.536;12.688;2024-01-15T13:00:39;-1.10;99.90
22153;DHT22;11242;50.536;12.688;2024-01-15T13:03:05;-1.10;99.90
22153;DHT22;11242;50.536;12.688;2024-01-15T13:05:32;-1.10;99.90
22153;DHT22;11242;50.536;12.688;2024-01-15T13:07:58;-1.10;99.90
22153;DHT22;11242;50.536;12.688;2024-01-15T13:10:24;-1.10;99.90
22153;DHT22;11242;50.536;12.688;2024-01-15T13:12:50;-1.00;99.90
22153;DHT22;11242;50.536;12.688;2024-01-15T13:15:16;-0.90;99.90
22153;DHT22;11242;50.536;12.688;2024-01-15T13:17:42;-0.90;99.90
22153;DHT22;11242;50.536;12.688;2024-01-15T13:20:08;-1.00;99.90
22153;DHT22;11242;50.536;12.688;2024-01-15T13:22:34;-1.00;99.90
22153;DHT22;11242;50.536;12.688;2024-01-15T13:25:00;-1.10;99.90
22153;DHT22;11242;50.536;12.688;2024-01-15T13:27:25;-1.00;99.90
22153;DHT22;11242;50.536;12.688;2024-01-15T13:29:51;-0.90;99.90
22153;DHT22;11242;50.536;12.688;2024-01-15T13:32:25;-0.90;99.90
22153;DHT22;11242;50.536;12.688;2024-01-15T13:34:51;-0.90;99.90
22153;DHT22;11242;50.536;12.688;2024-01-15T13:37:17;-0.90;99.90
22153;DHT22;11242;50.536;12.688;2024-01-15T13:39:43;-1.00;99.90
22153;DHT22;11242;50.536;12.688;2024-01-15T13:42:08;-1.00;99.90
22153;DHT22;11242;50.536;12.688;2024-01-15T13:44:37;-1.00;99.90
22153;DHT22;11242;50.536;12.688;2024-01-15T13:47:03;-1.00;99.90
22153;DHT22;11242;50.536;12.688;2024-01-15T13:49:28;-1.00;99.90
22153;DHT22;11242;50.536;12.688;2024-01-15T13:51:54;-1.00;99.90
22153;DHT22;11242;50.536;12.688;2024-01-15T13:54:20;-1.00;99.90
22153;DHT22;11242;50.536;12.688;2024-01-15T13:56:46;-1.00;99.90
22153;DHT22;11242;50.536;12.688;2024-01-15T13:59:12;-1.00;99.90
22153;DHT22;11242;50.536;12.688;2024-01-15T14:01:38;-1.00;99.90
22153;DHT22;11242;50.536;12.688;2024-01-15T14:04:04;-1.00;99.90
22153;DHT22;11242;50.536;12.688;2024-01-15T14:06:29;-1.00;99.90
22153;DHT22;11242;50.536;12.688;2024-01-15T14:08:55;-1.10;99.90
22153;DHT22;11242;50.536;12.688;2024-01-15T14:11:20;-1.10;99.90
22153;DHT22;11242;50.536;12.688;2024-01-15T14:13:46;-1.10;99.90
22153;DHT22;11242;50.536;12.688;2024-01-15T14:16:13;-1.10;99.90
22153;DHT22;11242;50.536;12.688;2024-01-15T14:18:38;-1.10;99.90
22153;DHT22;11242;50.536;12.688;2024-01-15T14:21:04;-1.10;99.90
22153;DHT22;11242;50.536;12.688;2024-01-15T14:23:29;-1.10;99.90
22153;DHT22;11242;50.536;12.688;2024-01-15T14:25:56;-1.10;99.90
22153;DHT22;11242;50.536;12.688;2024-01-15T14:28:21;-1.10;99.90
22153;DHT22;11242;50.536;12.688;2024-01-15T14:30:48;-1.10;99.90
22153;DHT22;11242;50.536;12.688;2024-01-15T14:33:14;-1.10;99.90
22153;DHT22;11242;50.536;12.688;2024-01-15T14:35:39;-1.20;99.90
22153;DHT22;11242;50.536;12.688;2024-01-15T14:38:05;-1.20;99.90
22153;DHT22;11242;50.536;12.688;2024-01-15T14:40:31;-1.20;99.90
22153;DHT22;11242;50.536;12.688;2024-01-15T14:42:56;-1.20;99.90
22153;DHT22;11242;50.536;12.688;2024-01-15T14:45:22;-1.20;99.90
22153;DHT22;11242;50.536;12.688;2024-01-15T14:47:48;-1.20;99.90
22153;DHT22;11242;50.536;12.688;2024-01-15T14:50:14;-1.20;99.90
22153;DHT22;11242;50.536;12.688;2024-01-15T14:52:39;-1.30;99.90
22153;DHT22;11242;50.536;12.688;2024-01-15T14:55:07;-1.30;99.90
22153;DHT22;11242;50.536;12.688;2024-01-15T14:57:34;-1.30;99.90
22153;DHT22;11242;50.536;12.688;2024-01-15T14:59:59;-1.30;99.90
22153;DHT22;11242;50.536;12.688;2024-01-15T15:02:25;-1.30;99.90
22153;DHT22;11242;50.536;12.688;2024-01-15T15:04:54;-1.30;99.90
22153;DHT22;11242;50.536;12.688;2024-01-15T15:07:21;-1.30;99.90
22153;DHT22;11242;50.536;12.688;2024-01-15T15:09:47;-1.30;99.90
22153;DHT22;11242;50.536;12.688;2024-01-15T15:12:16;-1.30;99.90
22153;DHT22;11242;50.536;12.688;2024-01-15T15:14:42;-1.30;99.90
22153;DHT22;11242;50.536;12.688;2024-01-15T15:17:08;-1.30;99.90
22153;DHT22;11242;50.536;12.688;2024-01-15T15:19:35;-1.30;99.90